Ursula — WDF2405 — position and weather

sailwx.info

Track history (hours):
 
Tides and Currents Weather Stations Pressure Air Temp Water Temp Dewpoint Dewpoint Depression Visibility Wind Speed Wind Dir Waves Ship Positions

Ursula

Owner: Enterprise Marine Services, LLC, San Antonio, TX. More information available from US FCC via Universal Licensing System and Coast Guard Vessel Documentation Center.

Last reported at 2017-Nov-25 02:00 UTC. Time now 2017-Nov-25 02:08 UTC.
Position N 30°06' W 093°19'.

Length 22 m; draft 2.7 m.

Type: Tug. MMSI: 367004050.

Date/timePositionNaut miles runAvg speedWind from/ knotsBaromVisibWave heightAir tempDewpointWater temp
2017-Nov-25 02:00N 30°06' W 093°19'1 2.0
2017-Nov-25 01:30N 30°05' W 093°20'3 5.3
2017-Nov-25 01:00N 30°04' W 093°22'2 4.9
2017-Nov-25 00:30N 30°04' W 093°25'3 5.4
2017-Nov-25 00:00N 30°04' W 093°28'3 5.9
2017-Nov-24 23:30N 30°04' W 093°31'3 6.4
2017-Nov-24 23:00N 30°04' W 093°35'3 6.3
2017-Nov-24 22:29N 30°04' W 093°39'21 3.1
2017-Nov-24 15:31N 29°50' W 093°58'0 0.0
2017-Nov-24 15:28N 29°50' W 093°58'0 0.0
2017-Nov-24 14:55N 29°50' W 093°58'0 0.0
2017-Nov-24 14:18N 29°50' W 093°58'0 0.0
2017-Nov-24 13:57N 29°50' W 093°58'20 1.3
2017-Nov-23 21:57N 30°04' W 093°40'3 5.6
2017-Nov-23 21:29N 30°04' W 093°37'3 5.4
2017-Nov-23 21:00N 30°04' W 093°34'3 5.2
2017-Nov-23 20:30N 30°04' W 093°31'2 4.7
2017-Nov-23 20:00N 30°04' W 093°28'2 4.8
2017-Nov-23 19:30N 30°04' W 093°26'2 3.9
2017-Nov-23 19:00N 30°04' W 093°23'2 3.7
2017-Nov-23 18:30N 30°04' W 093°21'2 3.2
2017-Nov-23 18:00N 30°05' W 093°20'2 4.2
2017-Nov-23 17:30N 30°05' W 093°18'1 2.1
2017-Nov-23 17:00N 30°05' W 093°17'0 0.0
2017-Nov-23 16:30N 30°05' W 093°17'0 0.0
2017-Nov-23 16:00N 30°05' W 093°17'0 0.0
2017-Nov-23 15:30N 30°05' W 093°17'0 0.0
2017-Nov-23 15:00N 30°05' W 093°17'0 0.1
2017-Nov-23 14:30N 30°05' W 093°17'2 4.2
2017-Nov-23 14:00N 30°03' W 093°16'2 4.8
2017-Nov-23 13:30N 30°01' W 093°14'2 3.9
2017-Nov-23 13:00N 29°59' W 093°13'1 2.0
2017-Nov-23 12:30N 29°59' W 093°12'1 2.2
2017-Nov-23 12:00N 29°58' W 093°11'0 0.0
2017-Nov-23 11:30N 29°58' W 093°11'0 0.0
2017-Nov-23 11:01N 29°58' W 093°11'0 0.1
2017-Nov-23 10:30N 29°58' W 093°11'0 0.0
2017-Nov-23 10:00N 29°58' W 093°11'0 0.0
2017-Nov-23 09:30N 29°58' W 093°11'0 0.0
2017-Nov-23 09:00N 29°58' W 093°11'0 0.0
2017-Nov-23 08:30N 29°58' W 093°11'0 0.0
2017-Nov-23 08:00N 29°58' W 093°11'0 0.9
2017-Nov-23 07:30N 29°57' W 093°11'2 4.6
2017-Nov-23 07:00N 29°56' W 093°08'3 5.3
2017-Nov-23 06:30N 29°56' W 093°05'3 5.2
2017-Nov-23 06:00N 29°56' W 093°02'37 4.9
2017-Nov-22 22:25N 29°50' W 092°20'2 4.3
2017-Nov-22 22:00N 29°50' W 092°18'2 3.8
2017-Nov-22 21:31N 29°49' W 092°16'3 5.3
2017-Nov-22 21:00N 29°48' W 092°13'2 3.5
2017-Nov-22 20:30N 29°47' W 092°11'1 1.2
2017-Nov-22 20:00N 29°47' W 092°11'2 4.6
2017-Nov-22 19:31N 29°47' W 092°08'  
2017-Nov-15 21:12N 29°33' W 090°27'2 6.2
2017-Nov-15 20:53N 29°34' W 090°29'3 6.4
2017-Nov-15 20:30N 29°34' W 090°32'3 6.0
2017-Nov-15 20:00N 29°35' W 090°35'3 5.6
2017-Nov-15 19:30N 29°35' W 090°38'3 5.7
2017-Nov-15 19:00N 29°36' W 090°41'2 3.6
2017-Nov-15 18:30N 29°35' W 090°43'2 4.5
2017-Nov-15 18:00N 29°34' W 090°45'3 5.8
2017-Nov-15 17:30N 29°32' W 090°47'3 6.7
2017-Nov-15 17:00N 29°32' W 090°51'3 6.4
2017-Nov-15 16:30N 29°33' W 090°55'55 5.0
2017-Nov-15 05:32N 29°51' W 091°55'1 6.5
2017-Nov-15 05:28N 29°51' W 091°55'3 6.0
2017-Nov-15 05:00N 29°50' W 091°59'3 6.4
2017-Nov-15 04:30N 29°49' W 092°02'3 6.2
2017-Nov-15 04:00N 29°48' W 092°05'3 6.1
2017-Nov-15 03:30N 29°47' W 092°09'3 5.8
2017-Nov-15 03:00N 29°47' W 092°12'1 2.0
2017-Nov-15 02:30N 29°47' W 092°13'  
Track history (hours):
 
Tides and Currents Weather Stations Pressure Air Temp Water Temp Dewpoint Dewpoint Depression Visibility Wind Speed Wind Dir Waves Ship Positions

Ursula

Owner: Enterprise Marine Services, LLC, San Antonio, TX. More information available from US FCC via Universal Licensing System and Coast Guard Vessel Documentation Center.

Last reported at 2017-Nov-25 02:00 UTC. Time now 2017-Nov-25 02:08 UTC.
Position N 30°06' W 093°19'.

Length 22 m; draft 2.7 m.

Type: Tug. MMSI: 367004050.

Date/timePositionNaut miles runAvg speedWind from/ knotsBaromVisibWave heightAir tempDewpointWater temp
2017-Nov-25 02:00N 30°06' W 093°19'1 2.0
2017-Nov-25 01:30N 30°05' W 093°20'3 5.3
2017-Nov-25 01:00N 30°04' W 093°22'2 4.9
2017-Nov-25 00:30N 30°04' W 093°25'3 5.4
2017-Nov-25 00:00N 30°04' W 093°28'3 5.9
2017-Nov-24 23:30N 30°04' W 093°31'3 6.4
2017-Nov-24 23:00N 30°04' W 093°35'3 6.3
2017-Nov-24 22:29N 30°04' W 093°39'21 3.1
2017-Nov-24 15:31N 29°50' W 093°58'0 0.0
2017-Nov-24 15:28N 29°50' W 093°58'0 0.0
2017-Nov-24 14:55N 29°50' W 093°58'0 0.0
2017-Nov-24 14:18N 29°50' W 093°58'0 0.0
2017-Nov-24 13:57N 29°50' W 093°58'20 1.3
2017-Nov-23 21:57N 30°04' W 093°40'3 5.6
2017-Nov-23 21:29N 30°04' W 093°37'3 5.4
2017-Nov-23 21:00N 30°04' W 093°34'3 5.2
2017-Nov-23 20:30N 30°04' W 093°31'2 4.7
2017-Nov-23 20:00N 30°04' W 093°28'2 4.8
2017-Nov-23 19:30N 30°04' W 093°26'2 3.9
2017-Nov-23 19:00N 30°04' W 093°23'2 3.7
2017-Nov-23 18:30N 30°04' W 093°21'2 3.2
2017-Nov-23 18:00N 30°05' W 093°20'2 4.2
2017-Nov-23 17:30N 30°05' W 093°18'1 2.1
2017-Nov-23 17:00N 30°05' W 093°17'0 0.0
2017-Nov-23 16:30N 30°05' W 093°17'0 0.0
2017-Nov-23 16:00N 30°05' W 093°17'0 0.0
2017-Nov-23 15:30N 30°05' W 093°17'0 0.0
2017-Nov-23 15:00N 30°05' W 093°17'0 0.1
2017-Nov-23 14:30N 30°05' W 093°17'2 4.2
2017-Nov-23 14:00N 30°03' W 093°16'2 4.8
2017-Nov-23 13:30N 30°01' W 093°14'2 3.9
2017-Nov-23 13:00N 29°59' W 093°13'1 2.0
2017-Nov-23 12:30N 29°59' W 093°12'1 2.2
2017-Nov-23 12:00N 29°58' W 093°11'0 0.0
2017-Nov-23 11:30N 29°58' W 093°11'0 0.0
2017-Nov-23 11:01N 29°58' W 093°11'0 0.1
2017-Nov-23 10:30N 29°58' W 093°11'0 0.0
2017-Nov-23 10:00N 29°58' W 093°11'0 0.0
2017-Nov-23 09:30N 29°58' W 093°11'0 0.0
2017-Nov-23 09:00N 29°58' W 093°11'0 0.0
2017-Nov-23 08:30N 29°58' W 093°11'0 0.0
2017-Nov-23 08:00N 29°58' W 093°11'0 0.9
2017-Nov-23 07:30N 29°57' W 093°11'2 4.6
2017-Nov-23 07:00N 29°56' W 093°08'3 5.3
2017-Nov-23 06:30N 29°56' W 093°05'3 5.2
2017-Nov-23 06:00N 29°56' W 093°02'37 4.9
2017-Nov-22 22:25N 29°50' W 092°20'2 4.3
2017-Nov-22 22:00N 29°50' W 092°18'2 3.8
2017-Nov-22 21:31N 29°49' W 092°16'3 5.3
2017-Nov-22 21:00N 29°48' W 092°13'2 3.5
2017-Nov-22 20:30N 29°47' W 092°11'1 1.2
2017-Nov-22 20:00N 29°47' W 092°11'2 4.6
2017-Nov-22 19:31N 29°47' W 092°08'  
2017-Nov-15 21:12N 29°33' W 090°27'2 6.2
2017-Nov-15 20:53N 29°34' W 090°29'3 6.4
2017-Nov-15 20:30N 29°34' W 090°32'3 6.0
2017-Nov-15 20:00N 29°35' W 090°35'3 5.6
2017-Nov-15 19:30N 29°35' W 090°38'3 5.7
2017-Nov-15 19:00N 29°36' W 090°41'2 3.6
2017-Nov-15 18:30N 29°35' W 090°43'2 4.5
2017-Nov-15 18:00N 29°34' W 090°45'3 5.8
2017-Nov-15 17:30N 29°32' W 090°47'3 6.7
2017-Nov-15 17:00N 29°32' W 090°51'3 6.4
2017-Nov-15 16:30N 29°33' W 090°55'55 5.0
2017-Nov-15 05:32N 29°51' W 091°55'1 6.5
2017-Nov-15 05:28N 29°51' W 091°55'3 6.0
2017-Nov-15 05:00N 29°50' W 091°59'3 6.4
2017-Nov-15 04:30N 29°49' W 092°02'3 6.2
2017-Nov-15 04:00N 29°48' W 092°05'3 6.1
2017-Nov-15 03:30N 29°47' W 092°09'3 5.8
2017-Nov-15 03:00N 29°47' W 092°12'1 2.0
2017-Nov-15 02:30N 29°47' W 092°13'  

Dump ship's entire track history